WetterOnline ( https://www.wetteronline.de )

Wetter aktuell Luleå

Aktuelles Wetter: Lulea (17m)

6-stündlich | Neueste Meldungen
Ortszeit Temperatur Wetter
Do, 02.02. 19:00 -10.3° C wolkenlos
Do, 02.02. 13:00 -6.6° C wolkig
Do, 02.02. 7:00 -6.9° C bewölkt
Do, 02.02. 1:00 -5.6° C wolkenlos
Mi, 01.02. 19:00 -6.8° C leicht bewölkt
Mi, 01.02. 13:00 -6.5° C leichter Schneefall
Mi, 01.02. 7:00 -12.4° C bedeckt
Mi, 01.02. 1:00 -10.4° C bedeckt
Ortszeit Temperatur Wetter
Do, 02.02. 21:00 -11.7° C wolkenlos
Do, 02.02. 20:00 -10.7° C wolkenlos
Do, 02.02. 19:00 -10.3° C wolkenlos
Do, 02.02. 18:00 -10.3° C wolkenlos
Do, 02.02. 17:00 -9.7° C wolkenlos
Do, 02.02. 16:00 -10.6° C wolkig
Do, 02.02. 15:00 -9.0° C leicht bewölkt
Ortszeit Relative Feuchte Sichtweite
Do, 02.02. 19:00 92% 45 km
Do, 02.02. 13:00 90% 65 km
Do, 02.02. 7:00 88% 60 km
Do, 02.02. 1:00 88% 50 km
Mi, 01.02. 19:00 92% 70 km
Mi, 01.02. 13:00 90% 10 km
Mi, 01.02. 7:00 92% 50 km
Mi, 01.02. 1:00 92% 50 km
Ortszeit Relative Feuchte Sichtweite
Do, 02.02. 21:00 91% 35 km
Do, 02.02. 20:00 90% 45 km
Do, 02.02. 19:00 92% 45 km
Do, 02.02. 18:00 91% 45 km
Do, 02.02. 17:00 92% 35 km
Do, 02.02. 16:00 93% 65 km
Do, 02.02. 15:00 91% 70 km
Ortszeit Niederschlagsmenge Niederschlagsart
Do, 02.02. 19:00 0.0 l/m2 in 12 Std. -
Do, 02.02. 13:00 0.0 l/m2 in 6 Std. -
Do, 02.02. 7:00 0.1 l/m2 in 12 Std. -
Do, 02.02. 1:00 0.1 l/m2 in 6 Std. Schnee, Sprühregen
Mi, 01.02. 19:00 0.1 l/m2 in 12 Std. Schnee
Mi, 01.02. 13:00 0.1 l/m2 in 6 Std. Schnee
Mi, 01.02. 7:00 0.0 l/m2 in 12 Std. -
Mi, 01.02. 1:00 0.0 l/m2 in 6 Std. -
Ortszeit Niederschlagsmenge Niederschlagsart
Do, 02.02. 21:00 0.0 l/m2 in 1 Std. -
Do, 02.02. 20:00 0.0 l/m2 in 1 Std. -
Do, 02.02. 19:00 0.0 l/m2 in 1 Std. -
Do, 02.02. 18:00 0.0 l/m2 in 1 Std. -
Do, 02.02. 17:00 0.0 l/m2 in 1 Std. -
Do, 02.02. 16:00 0.0 l/m2 in 1 Std. -
Do, 02.02. 15:00 0.0 l/m2 in 1 Std. -
Ortszeit Stärke Spitze Richtung
km/h Bft. km/h Grad Sektor
Do, 02.02. 19:00 11 2 - 330° NW
Do, 02.02. 13:00 18 3 - 340° N
Do, 02.02. 7:00 22 4 32 330° NW
Do, 02.02. 1:00 22 4 - 330° NW
Mi, 01.02. 19:00 7 2 25 340° N
Mi, 01.02. 13:00 11 2 18 320° NW
Mi, 01.02. 7:00 4 1 - 290° W
Mi, 01.02. 1:00 4 1 - 320° NW
Ortszeit Stärke Spitze Richtung
km/h Bft. km/h Grad Sektor
Do, 02.02. 21:00 18 3 18 330° NW
Do, 02.02. 20:00 11 2 18 340° N
Do, 02.02. 19:00 11 2 18 330° NW
Do, 02.02. 18:00 11 2 18 330° NW
Do, 02.02. 17:00 11 2 14 330° NW
Do, 02.02. 16:00 11 2 18 330° NW
Do, 02.02. 15:00 14 3 18 320° NW
Ortszeit Untergrenze Bedeckung Gattung
total tief tief mittel hoch
Do, 02.02. 19:00 - 0/8 0/8 - - -
Do, 02.02. 13:00 3000 m 7/8 5/8 - As Ci
Do, 02.02. 7:00 1260 m 7/8 6/8 Sc - -
Do, 02.02. 1:00 - 0/8 0/8 - - -
Mi, 01.02. 19:00 690 m 4/8 1/8 Sc - Cs
Mi, 01.02. 13:00 - 8/8 - - - -
Mi, 01.02. 7:00 - 8/8 - - - -
Mi, 01.02. 1:00 1500 m 8/8 8/8 - - -
Ortszeit Bedeckungsgrad in Achtel und Wolkenuntergrenze
Do, 02.02. 21:00 keine Wolken
Do, 02.02. 20:00 keine Wolken
Do, 02.02. 19:00 keine Wolken
Do, 02.02. 18:00 keine Wolken
Do, 02.02. 17:00 keine Wolken
Do, 02.02. 16:00 3(3300m) 8(6300m)
Do, 02.02. 15:00 3(3000m) 3(3900m)
Ortszeit Luftdruck NN (hPa) Tendenz (hPa in 3 Std.)
Do, 02.02. 19:00 1013 + 1,6
Do, 02.02. 13:00 1009 + 2,0
Do, 02.02. 7:00 1005 + 1,9
Do, 02.02. 1:00 1001 + 1,9
Mi, 01.02. 19:00 997 + 1,9
Mi, 01.02. 13:00 993 + 2,1
Mi, 01.02. 7:00 989 + 1,3
Mi, 01.02. 1:00 987 + 0,5
Ortszeit Luftdruck NN (hPa) Tendenz (hPa in 3 Std.)
Do, 02.02. 21:00 1014 + 1,1
Do, 02.02. 20:00 1013 + 1,1
Do, 02.02. 19:00 1013 + 1,6
Do, 02.02. 18:00 1013 + 2,2
Do, 02.02. 17:00 1012 + 2,2
Do, 02.02. 16:00 1011 + 2,2
Do, 02.02. 15:00 1010 + 1,8
Ortszeit Schneehöhe (cm)
Do, 02.02. 19:00 -
Do, 02.02. 13:00 -
Do, 02.02. 7:00 46
Do, 02.02. 1:00 -
Mi, 01.02. 19:00 -
Mi, 01.02. 13:00 -
Mi, 01.02. 7:00 -
Mi, 01.02. 1:00 -
Ortszeit Schneehöhe (cm)
Do, 02.02. 21:00 -
Do, 02.02. 20:00 -
Do, 02.02. 19:00 -
Do, 02.02. 18:00 -
Do, 02.02. 17:00 -
Do, 02.02. 16:00 -
Do, 02.02. 15:00 -
Link zu dieser Seite / Seite empfehlen

Das Wetter in ...